Time;durP1;ratioP1;P1;durP2;ratioP2;P2;SDS_P1;SDS_P2;PMS_P1;PMS_P2;Temp;Humidity;BMP_temperature;BMP_pressure;BME280_temperature;BME280_humidity;BME280_pressure;Samples;Min_cycle;Max_cycle;Signal;HPM_P1;HPM_P2
2022/03/06 00:00:51;;;;;;;4.13;2.47;;;;;;;;;;4929934;29;20269;-65
2022/03/06 00:03:18;;;;;;;2.10;2.00;;;;;;;;;;4930481;29;20237;-65
2022/03/06 00:05:45;;;;;;;2.53;1.63;;;;;;;;;;4929612;29;20209;-65
2022/03/06 00:08:12;;;;;;;4.80;2.17;;;;;;;;;;4930406;29;20219;-65
2022/03/06 00:10:39;;;;;;;4.63;2.07;;;;;;;;;;4929983;29;20238;-65
2022/03/06 00:13:06;;;;;;;3.63;2.10;;;;;;;;;;4929704;29;20629;-65
2022/03/06 00:15:35;;;;;;;1.83;1.70;;;;;;;;;;4935137;29;20218;-65
2022/03/06 00:18:02;;;;;;;2.50;2.17;;;;;;;;;;4946426;28;20230;-65
2022/03/06 00:20:29;;;;;;;4.40;1.80;;;;;;;;;;4929530;29;20216;-65
2022/03/06 00:22:56;;;;;;;2.43;2.00;;;;;;;;;;4942956;29;20601;-65
2022/03/06 00:25:23;;;;;;;1.63;1.53;;;;;;;;;;4943517;29;21022;-65
2022/03/06 00:27:50;;;;;;;2.63;2.43;;;;;;;;;;4947679;29;20250;-65
2022/03/06 00:30:17;;;;;;;4.47;2.60;;;;;;;;;;4947711;29;20219;-65
2022/03/06 00:32:45;;;;;;;2.33;1.77;;;;;;;;;;4948141;29;20216;-65
2022/03/06 00:35:12;;;;;;;3.27;1.90;;;;;;;;;;4928979;29;20306;-65
2022/03/06 00:37:39;;;;;;;4.13;2.13;;;;;;;;;;4946452;29;20211;-65
2022/03/06 00:40:08;;;;;;;3.23;2.40;;;;;;;;;;4947604;29;20216;-65
2022/03/06 00:42:35;;;;;;;1.70;1.60;;;;;;;;;;4947995;29;20239;-65
2022/03/06 00:45:02;;;;;;;2.73;2.07;;;;;;;;;;4929488;29;20231;-65
2022/03/06 00:47:29;;;;;;;1.33;1.17;;;;;;;;;;4939854;29;20219;-65
2022/03/06 00:49:57;;;;;;;5.57;2.30;;;;;;;;;;4946530;29;20574;-65
2022/03/06 00:52:25;;;;;;;3.83;1.77;;;;;;;;;;4943931;29;20769;-65
2022/03/06 00:54:52;;;;;;;2.50;2.00;;;;;;;;;;4927630;29;20216;-65
2022/03/06 00:57:19;;;;;;;5.43;1.70;;;;;;;;;;4936471;29;20214;-65
2022/03/06 00:59:46;;;;;;;1.60;1.50;;;;;;;;;;4946683;29;20216;-65
2022/03/06 01:02:13;;;;;;;2.90;2.53;;;;;;;;;;4946153;29;20740;-65
2022/03/06 01:04:41;;;;;;;4.40;2.33;;;;;;;;;;4947066;29;20215;-65
2022/03/06 01:07:09;;;;;;;2.60;1.67;;;;;;;;;;4943648;29;20229;-65
2022/03/06 01:09:36;;;;;;;3.37;1.70;;;;;;;;;;4928342;29;20789;-65
2022/03/06 01:12:03;;;;;;;1.67;1.63;;;;;;;;;;4927795;29;20224;-65
2022/03/06 01:14:30;;;;;;;2.90;2.33;;;;;;;;;;4927408;29;20216;-63
2022/03/06 01:16:57;;;;;;;4.70;1.70;;;;;;;;;;4934220;29;20223;-63
2022/03/06 01:19:24;;;;;;;1.63;1.03;;;;;;;;;;4927198;29;20251;-63
2022/03/06 01:21:51;;;;;;;1.33;1.23;;;;;;;;;;4927760;29;20223;-65
2022/03/06 01:24:20;;;;;;;2.30;1.57;;;;;;;;;;4944972;29;20235;-63
2022/03/06 01:26:47;;;;;;;2.17;1.90;;;;;;;;;;4946103;29;20223;-63
2022/03/06 01:29:14;;;;;;;1.97;1.47;;;;;;;;;;4937025;29;20845;-63
2022/03/06 01:31:41;;;;;;;2.10;2.00;;;;;;;;;;4939729;29;20208;-63
2022/03/06 01:34:08;;;;;;;3.97;2.10;;;;;;;;;;4944019;29;20210;-63
2022/03/06 01:36:35;;;;;;;3.00;0.93;;;;;;;;;;4938979;28;20212;-63
2022/03/06 01:39:02;;;;;;;2.93;1.40;;;;;;;;;;4927253;29;20216;-65
2022/03/06 01:41:33;;;;;;;2.90;2.10;;;;;;;;;;4927942;29;20951;-63
2022/03/06 01:44:00;;;;;;;2.30;1.20;;;;;;;;;;4942983;29;20234;-63
2022/03/06 01:46:27;;;;;;;1.30;1.27;;;;;;;;;;4945584;29;20207;-63
2022/03/06 01:48:54;;;;;;;1.70;1.53;;;;;;;;;;4930666;29;20217;-64
2022/03/06 01:51:21;;;;;;;1.80;1.47;;;;;;;;;;4926776;29;20341;-65
2022/03/06 01:53:49;;;;;;;1.90;1.50;;;;;;;;;;4927001;29;20218;-63
2022/03/06 01:56:16;;;;;;;1.23;1.23;;;;;;;;;;4928185;29;20211;-63
2022/03/06 01:58:44;;;;;;;2.10;1.83;;;;;;;;;;4945439;29;20217;-63
2022/03/06 02:01:11;;;;;;;1.00;1.00;;;;;;;;;;4945478;29;20215;-63
2022/03/06 02:03:38;;;;;;;7.37;1.83;;;;;;;;;;4945925;29;20239;-63
2022/03/06 02:06:06;;;;;;;2.07;1.60;;;;;;;;;;4944821;29;20211;-63
2022/03/06 02:08:34;;;;;;;2.23;1.27;;;;;;;;;;4945839;29;20207;-63
2022/03/06 02:11:01;;;;;;;3.50;1.50;;;;;;;;;;4940549;28;20622;-63
2022/03/06 02:13:28;;;;;;;4.53;1.50;;;;;;;;;;4941648;29;20203;-63
2022/03/06 02:15:57;;;;;;;5.43;2.73;;;;;;;;;;4944027;29;20214;-63
2022/03/06 02:18:24;;;;;;;4.93;2.70;;;;;;;;;;4944370;29;20214;-63
2022/03/06 02:20:51;;;;;;;1.30;1.10;;;;;;;;;;4945640;29;20222;-63
2022/03/06 02:23:19;;;;;;;1.70;1.60;;;;;;;;;;4933253;29;20227;-63
2022/03/06 02:25:46;;;;;;;2.43;1.77;;;;;;;;;;4929488;29;20790;-63
2022/03/06 02:28:13;;;;;;;2.37;2.10;;;;;;;;;;4945267;29;20253;-63
2022/03/06 02:30:41;;;;;;;1.90;1.27;;;;;;;;;;4945387;28;20207;-63
2022/03/06 02:33:09;;;;;;;1.70;1.60;;;;;;;;;;4944838;29;20938;-63
2022/03/06 02:35:37;;;;;;;1.60;1.50;;;;;;;;;;4945386;29;20219;-63
2022/03/06 02:38:04;;;;;;;2.23;1.53;;;;;;;;;;4945528;29;20218;-63
2022/03/06 02:40:37;;;;;;;4.33;1.90;;;;;;;;;;4942299;29;20208;-63
2022/03/06 02:43:05;;;;;;;1.67;1.40;;;;;;;;;;4927005;29;20702;-63
2022/03/06 02:45:33;;;;;;;1.60;1.30;;;;;;;;;;4928010;29;20314;-63
2022/03/06 02:48:00;;;;;;;1.83;1.37;;;;;;;;;;4942313;29;20219;-63
2022/03/06 02:50:28;;;;;;;1.50;1.40;;;;;;;;;;4943624;28;20302;-63
2022/03/06 02:52:55;;;;;;;1.87;1.77;;;;;;;;;;4936688;29;20234;-63
2022/03/06 02:55:23;;;;;;;5.20;2.43;;;;;;;;;;4948888;29;20215;-62
2022/03/06 02:57:51;;;;;;;2.00;1.63;;;;;;;;;;4950114;29;20217;-62
2022/03/06 03:00:19;;;;;;;2.27;1.57;;;;;;;;;;4949421;29;20214;-63
2022/03/06 03:02:46;;;;;;;5.97;2.00;;;;;;;;;;4950113;29;20221;-64
2022/03/06 03:05:14;;;;;;;5.67;2.33;;;;;;;;;;4942695;28;20687;-64
2022/03/06 03:07:42;;;;;;;2.10;1.93;;;;;;;;;;4952564;28;20209;-63
2022/03/06 03:10:10;;;;;;;1.30;1.20;;;;;;;;;;4957982;28;20210;-63
2022/03/06 03:12:37;;;;;;;2.90;1.37;;;;;;;;;;4962611;28;20764;-63
2022/03/06 03:15:07;;;;;;;3.00;1.43;;;;;;;;;;4961860;28;20405;-63
2022/03/06 03:17:34;;;;;;;2.17;1.83;;;;;;;;;;4959474;28;20221;-63
2022/03/06 03:20:01;;;;;;;2.07;1.30;;;;;;;;;;4956325;28;20643;-62
2022/03/06 03:22:28;;;;;;;4.13;1.87;;;;;;;;;;4959754;28;20570;-63
2022/03/06 03:24:55;;;;;;;1.60;1.50;;;;;;;;;;4955736;28;20236;-63
2022/03/06 03:27:22;;;;;;;2.37;1.60;;;;;;;;;;4961780;28;20268;-63
2022/03/06 03:29:49;;;;;;;2.13;1.40;;;;;;;;;;4961684;28;20217;-63
2022/03/06 03:32:17;;;;;;;3.70;1.77;;;;;;;;;;4961179;28;20211;-62
2022/03/06 03:34:44;;;;;;;6.70;2.07;;;;;;;;;;4959746;28;20211;-63
2022/03/06 03:37:11;;;;;;;1.27;1.20;;;;;;;;;;4960083;28;20206;-62
2022/03/06 03:39:38;;;;;;;2.13;1.77;;;;;;;;;;4962700;28;20665;-63
2022/03/06 03:42:05;;;;;;;1.40;1.40;;;;;;;;;;4960389;28;20212;-62
2022/03/06 03:44:32;;;;;;;2.23;1.93;;;;;;;;;;4960414;28;20257;-63
2022/03/06 03:46:59;;;;;;;2.00;1.87;;;;;;;;;;4958636;28;20218;-63
2022/03/06 03:49:28;;;;;;;2.87;1.57;;;;;;;;;;4953117;29;20218;-63
2022/03/06 03:51:55;;;;;;;2.00;1.83;;;;;;;;;;4938676;29;20223;-63
2022/03/06 03:54:22;;;;;;;3.50;1.97;;;;;;;;;;4949352;28;20213;-62
2022/03/06 03:56:49;;;;;;;2.87;1.40;;;;;;;;;;4962152;28;20278;-63
2022/03/06 03:59:16;;;;;;;4.30;2.07;;;;;;;;;;4940168;29;20318;-63
2022/03/06 04:01:43;;;;;;;1.60;1.50;;;;;;;;;;4954267;28;20213;-63
2022/03/06 04:04:10;;;;;;;1.93;1.50;;;;;;;;;;4957599;28;20731;-64
2022/03/06 04:06:38;;;;;;;2.23;1.50;;;;;;;;;;4963173;28;20206;-63
2022/03/06 04:09:05;;;;;;;1.37;1.23;;;;;;;;;;4960824;28;20213;-63
2022/03/06 04:11:33;;;;;;;1.07;1.07;;;;;;;;;;4962041;28;20199;-63
2022/03/06 04:14:00;;;;;;;1.63;1.53;;;;;;;;;;4961197;28;20207;-63
2022/03/06 04:16:27;;;;;;;4.67;1.43;;;;;;;;;;4960224;28;20268;-63
2022/03/06 04:18:55;;;;;;;1.63;1.53;;;;;;;;;;4960049;28;20303;-63
2022/03/06 04:21:22;;;;;;;2.17;1.67;;;;;;;;;;4959099;28;20292;-63
2022/03/06 04:23:50;;;;;;;2.53;2.33;;;;;;;;;;4959996;28;20674;-63
2022/03/06 04:26:17;;;;;;;2.13;1.70;;;;;;;;;;4957746;28;20281;-63
2022/03/06 04:28:44;;;;;;;4.20;1.87;;;;;;;;;;4951739;29;20252;-63
2022/03/06 04:31:11;;;;;;;5.03;1.83;;;;;;;;;;4948246;29;20218;-63
2022/03/06 04:33:38;;;;;;;3.37;1.50;;;;;;;;;;4941728;29;20630;-63
2022/03/06 04:36:05;;;;;;;1.37;1.27;;;;;;;;;;4940256;29;20206;-63
2022/03/06 04:38:32;;;;;;;2.67;1.23;;;;;;;;;;4952163;29;20683;-63
2022/03/06 04:41:01;;;;;;;1.80;1.17;;;;;;;;;;4946795;29;20222;-63
2022/03/06 04:43:28;;;;;;;1.93;1.60;;;;;;;;;;4938738;29;20233;-63
2022/03/06 04:45:55;;;;;;;2.67;1.43;;;;;;;;;;4950056;29;20764;-64
2022/03/06 04:48:22;;;;;;;3.17;1.10;;;;;;;;;;4951999;29;20229;-63
2022/03/06 04:50:49;;;;;;;1.23;1.07;;;;;;;;;;4936712;29;20218;-63
2022/03/06 04:53:16;;;;;;;1.83;1.03;;;;;;;;;;4932415;29;20670;-63
2022/03/06 04:55:43;;;;;;;1.27;1.20;;;;;;;;;;4931894;29;20218;-63
2022/03/06 04:58:12;;;;;;;2.67;1.80;;;;;;;;;;4931872;29;20311;-63
2022/03/06 05:00:39;;;;;;;1.70;1.57;;;;;;;;;;4943816;29;20933;-63
2022/03/06 05:03:06;;;;;;;1.27;1.23;;;;;;;;;;4951185;29;20219;-63
2022/03/06 05:05:33;;;;;;;3.03;2.03;;;;;;;;;;4950064;29;20234;-63
2022/03/06 05:08:00;;;;;;;1.47;1.23;;;;;;;;;;4950945;29;20222;-63
2022/03/06 05:10:27;;;;;;;2.00;1.60;;;;;;;;;;4950228;29;20300;-64
2022/03/06 05:12:54;;;;;;;1.57;1.47;;;;;;;;;;4950838;29;20221;-63
2022/03/06 05:15:22;;;;;;;1.47;1.37;;;;;;;;;;4949884;29;20207;-63
2022/03/06 05:17:50;;;;;;;2.13;1.47;;;;;;;;;;4950951;29;20222;-63
2022/03/06 05:20:17;;;;;;;1.17;1.00;;;;;;;;;;4950259;29;20218;-63
2022/03/06 05:22:44;;;;;;;4.70;1.60;;;;;;;;;;4950750;29;20665;-63
2022/03/06 05:25:11;;;;;;;3.03;2.17;;;;;;;;;;4940357;29;20238;-63
2022/03/06 05:27:39;;;;;;;3.83;1.77;;;;;;;;;;4931843;29;20265;-63
2022/03/06 05:30:07;;;;;;;2.60;1.57;;;;;;;;;;4932617;29;20749;-63
2022/03/06 05:32:35;;;;;;;1.33;1.10;;;;;;;;;;4931333;29;20229;-63
2022/03/06 05:35:03;;;;;;;3.20;1.47;;;;;;;;;;4932097;29;20235;-63
2022/03/06 05:37:30;;;;;;;3.10;1.07;;;;;;;;;;4931866;29;20316;-63
2022/03/06 05:39:57;;;;;;;2.23;1.30;;;;;;;;;;4932019;29;20234;-63
2022/03/06 05:42:24;;;;;;;1.87;1.77;;;;;;;;;;4932076;29;20217;-63
2022/03/06 05:44:51;;;;;;;1.07;1.07;;;;;;;;;;4939170;29;20307;-63
2022/03/06 05:47:19;;;;;;;1.23;1.17;;;;;;;;;;4950683;29;20221;-63
2022/03/06 05:49:47;;;;;;;2.20;2.10;;;;;;;;;;4943113;28;20306;-63
2022/03/06 05:52:14;;;;;;;1.30;1.30;;;;;;;;;;4950217;28;20212;-63
2022/03/06 05:54:41;;;;;;;1.80;1.53;;;;;;;;;;4950211;29;20210;-63
2022/03/06 05:57:08;;;;;;;2.47;1.50;;;;;;;;;;4950922;29;20692;-63
2022/03/06 05:59:35;;;;;;;2.10;1.87;;;;;;;;;;4934180;29;20213;-63
2022/03/06 06:02:03;;;;;;;7.50;1.40;;;;;;;;;;4931884;29;20218;-63
2022/03/06 06:04:30;;;;;;;3.47;1.60;;;;;;;;;;4947012;29;20794;-63
2022/03/06 06:06:58;;;;;;;1.53;0.93;;;;;;;;;;4949942;29;20244;-63
2022/03/06 06:09:25;;;;;;;1.47;0.90;;;;;;;;;;4950271;29;20676;-64
2022/03/06 06:11:52;;;;;;;0.40;0.40;;;;;;;;;;4950368;29;20218;-65
2022/03/06 06:14:19;;;;;;;1.80;1.70;;;;;;;;;;4949934;29;20694;-63
2022/03/06 06:16:46;;;;;;;1.67;1.40;;;;;;;;;;4950659;28;20599;-63
2022/03/06 06:19:14;;;;;;;1.50;1.40;;;;;;;;;;4945813;28;20218;-64
2022/03/06 06:21:43;;;;;;;3.43;1.00;;;;;;;;;;4946413;28;20246;-65
2022/03/06 06:24:11;;;;;;;1.40;1.03;;;;;;;;;;4931128;29;20264;-64
2022/03/06 06:26:38;;;;;;;2.50;1.10;;;;;;;;;;4931135;29;20716;-64
2022/03/06 06:29:05;;;;;;;3.40;2.03;;;;;;;;;;4931325;29;20214;-64
2022/03/06 06:31:32;;;;;;;7.27;1.37;;;;;;;;;;4931320;29;20217;-64
2022/03/06 06:33:59;;;;;;;4.00;1.33;;;;;;;;;;4935572;29;20226;-64
2022/03/06 06:36:26;;;;;;;4.17;1.70;;;;;;;;;;4948760;28;20214;-64
2022/03/06 06:38:54;;;;;;;0.90;0.90;;;;;;;;;;4932154;29;20214;-64
2022/03/06 06:41:22;;;;;;;1.83;1.30;;;;;;;;;;4931317;29;20212;-64
2022/03/06 06:43:49;;;;;;;4.03;1.67;;;;;;;;;;4933765;29;20204;-64
2022/03/06 06:46:16;;;;;;;5.50;2.10;;;;;;;;;;4934925;29;20219;-64
2022/03/06 06:48:43;;;;;;;1.50;1.47;;;;;;;;;;4952229;29;20681;-64
2022/03/06 06:51:11;;;;;;;12.27;2.07;;;;;;;;;;4953613;29;20222;-64
2022/03/06 06:53:38;;;;;;;2.23;1.90;;;;;;;;;;4937182;28;20218;-64
2022/03/06 06:56:05;;;;;;;1.47;1.30;;;;;;;;;;4935030;29;20215;-64
2022/03/06 06:58:34;;;;;;;2.47;2.23;;;;;;;;;;4934932;29;20208;-64
2022/03/06 07:01:01;;;;;;;1.27;1.13;;;;;;;;;;4940286;29;20289;-64
2022/03/06 07:03:28;;;;;;;2.37;0.90;;;;;;;;;;4953407;29;20936;-64
2022/03/06 07:05:56;;;;;;;5.23;2.13;;;;;;;;;;4953354;29;20242;-64
2022/03/06 07:08:23;;;;;;;1.73;1.17;;;;;;;;;;4953829;29;20676;-64
2022/03/06 07:10:51;;;;;;;2.27;1.77;;;;;;;;;;4952614;29;20281;-64
2022/03/06 07:13:18;;;;;;;2.40;2.20;;;;;;;;;;4953404;29;20262;-64
2022/03/06 07:15:46;;;;;;;2.13;1.73;;;;;;;;;;4952726;29;21059;-63
2022/03/06 07:18:13;;;;;;;0.83;0.83;;;;;;;;;;4953442;29;20277;-64
2022/03/06 07:20:40;;;;;;;1.37;1.07;;;;;;;;;;4952771;29;20214;-64
2022/03/06 07:23:15;;;;;;;2.13;1.90;;;;;;;;;;4953297;29;20210;-64
2022/03/06 07:25:43;;;;;;;1.77;1.60;;;;;;;;;;4949438;29;20238;-63
2022/03/06 07:28:10;;;;;;;3.43;1.97;;;;;;;;;;4938014;28;20245;-63
2022/03/06 07:30:37;;;;;;;2.20;1.70;;;;;;;;;;4950308;29;20219;-63
2022/03/06 07:33:05;;;;;;;2.50;1.83;;;;;;;;;;4938595;29;20207;-63
2022/03/06 07:35:33;;;;;;;1.73;1.63;;;;;;;;;;4952823;29;20262;-63
2022/03/06 07:38:00;;;;;;;1.70;1.60;;;;;;;;;;4953334;29;20219;-63
2022/03/06 07:40:27;;;;;;;2.77;2.53;;;;;;;;;;4951420;29;20282;-63
2022/03/06 07:42:54;;;;;;;2.20;1.53;;;;;;;;;;4934742;29;20693;-63
2022/03/06 07:45:21;;;;;;;2.90;1.43;;;;;;;;;;4938575;29;20244;-63
2022/03/06 07:47:48;;;;;;;3.60;2.50;;;;;;;;;;4953363;29;20218;-63
2022/03/06 07:50:16;;;;;;;1.07;1.07;;;;;;;;;;4952499;29;20200;-63
2022/03/06 07:52:44;;;;;;;2.23;1.60;;;;;;;;;;4953183;29;20215;-63
2022/03/06 07:55:11;;;;;;;2.83;2.60;;;;;;;;;;4938711;29;20219;-63
2022/03/06 07:57:38;;;;;;;2.87;1.90;;;;;;;;;;4953227;29;20218;-64
2022/03/06 08:00:06;;;;;;;2.30;1.33;;;;;;;;;;4940071;29;20226;-63
2022/03/06 08:02:33;;;;;;;2.20;1.40;;;;;;;;;;4951982;29;20670;-63
2022/03/06 08:05:00;;;;;;;1.00;1.00;;;;;;;;;;4939444;28;20292;-64
2022/03/06 08:07:28;;;;;;;0.80;0.80;;;;;;;;;;4933801;29;20216;-63
2022/03/06 08:09:55;;;;;;;3.90;2.20;;;;;;;;;;4934752;29;20214;-63
2022/03/06 08:12:24;;;;;;;3.17;1.83;;;;;;;;;;4951366;29;20216;-63
2022/03/06 08:14:51;;;;;;;1.20;1.20;;;;;;;;;;4952392;29;20213;-63
2022/03/06 08:17:18;;;;;;;1.33;1.23;;;;;;;;;;4940556;29;20674;-64
2022/03/06 08:19:45;;;;;;;0.40;0.40;;;;;;;;;;4942495;28;20782;-63
2022/03/06 08:22:13;;;;;;;3.33;1.80;;;;;;;;;;4946535;29;20213;-63
2022/03/06 08:24:41;;;;;;;3.70;2.27;;;;;;;;;;4932822;29;20243;-63
2022/03/06 08:27:08;;;;;;;1.97;1.37;;;;;;;;;;4933560;29;20242;-63
2022/03/06 08:29:35;;;;;;;1.00;1.00;;;;;;;;;;4934538;29;20210;-63
2022/03/06 08:32:03;;;;;;;5.70;2.20;;;;;;;;;;4933485;29;20265;-63
2022/03/06 08:34:30;;;;;;;1.97;1.53;;;;;;;;;;4932672;29;20854;-63
2022/03/06 08:36:57;;;;;;;1.70;1.60;;;;;;;;;;4938355;29;20924;-63
2022/03/06 08:39:24;;;;;;;1.37;1.27;;;;;;;;;;4934161;29;20223;-63
2022/03/06 08:41:52;;;;;;;1.90;1.47;;;;;;;;;;4941330;29;20215;-63
2022/03/06 08:44:19;;;;;;;1.90;1.63;;;;;;;;;;4952064;29;20211;-63
2022/03/06 08:46:47;;;;;;;1.37;1.30;;;;;;;;;;4951327;29;20230;-63
2022/03/06 08:49:14;;;;;;;2.50;1.87;;;;;;;;;;4951823;29;20211;-64
2022/03/06 08:51:41;;;;;;;1.50;1.40;;;;;;;;;;4946629;29;20223;-63
2022/03/06 08:54:08;;;;;;;4.40;2.43;;;;;;;;;;4951509;29;20207;-64
2022/03/06 08:56:35;;;;;;;2.60;1.20;;;;;;;;;;4950900;29;20206;-64
2022/03/06 08:59:04;;;;;;;3.30;1.57;;;;;;;;;;4951507;29;20765;-64
2022/03/06 09:01:31;;;;;;;0.83;0.83;;;;;;;;;;4950482;29;20223;-64
2022/03/06 09:03:58;;;;;;;2.40;2.20;;;;;;;;;;4939559;29;20368;-63
2022/03/06 09:06:25;;;;;;;2.43;0.97;;;;;;;;;;4939389;29;20234;-63
2022/03/06 09:08:52;;;;;;;2.70;2.33;;;;;;;;;;4934923;29;20216;-64
2022/03/06 09:11:19;;;;;;;1.30;1.10;;;;;;;;;;4951298;29;20225;-64
2022/03/06 09:13:46;;;;;;;2.90;1.90;;;;;;;;;;4948633;29;20215;-64
2022/03/06 09:16:15;;;;;;;2.20;1.87;;;;;;;;;;4947644;29;20221;-64
2022/03/06 09:18:43;;;;;;;1.23;0.67;;;;;;;;;;4931343;29;20230;-64
2022/03/06 09:21:11;;;;;;;2.40;2.07;;;;;;;;;;4949671;29;20297;-64
2022/03/06 09:23:38;;;;;;;2.63;1.83;;;;;;;;;;4949876;29;20695;-65
2022/03/06 09:26:05;;;;;;;1.63;1.53;;;;;;;;;;4942652;29;20242;-63
2022/03/06 09:28:32;;;;;;;1.40;1.30;;;;;;;;;;4939056;29;20234;-64
2022/03/06 09:30:59;;;;;;;2.47;2.03;;;;;;;;;;4934690;29;20860;-63
2022/03/06 09:33:27;;;;;;;2.10;1.57;;;;;;;;;;4937871;29;20218;-63
2022/03/06 09:35:54;;;;;;;2.93;1.80;;;;;;;;;;4938525;29;20210;-64
2022/03/06 09:38:24;;;;;;;1.87;1.77;;;;;;;;;;4951230;29;20219;-64
2022/03/06 09:40:53;;;;;;;1.87;1.60;;;;;;;;;;4936086;29;20456;-63
2022/03/06 09:43:20;;;;;;;2.47;2.00;;;;;;;;;;4929557;29;20208;-63
2022/03/06 09:45:48;;;;;;;1.57;1.47;;;;;;;;;;4931053;29;20231;-63
2022/03/06 09:48:16;;;;;;;1.27;1.27;;;;;;;;;;4931100;29;20659;-64
2022/03/06 09:50:45;;;;;;;0.73;0.73;;;;;;;;;;4933939;29;20223;-64
2022/03/06 09:53:12;;;;;;;2.10;1.90;;;;;;;;;;4950093;29;20207;-64
2022/03/06 09:55:39;;;;;;;2.40;2.20;;;;;;;;;;4944253;29;20206;-65
2022/03/06 09:58:06;;;;;;;1.97;1.53;;;;;;;;;;4950480;29;20211;-64
2022/03/06 10:00:33;;;;;;;6.37;4.17;;;;;;;;;;4946215;29;20234;-64
2022/03/06 10:03:01;;;;;;;8.30;1.67;;;;;;;;;;4939458;29;20438;-64
2022/03/06 10:05:29;;;;;;;1.67;1.20;;;;;;;;;;4948985;29;20274;-64
2022/03/06 10:08:17;;;;;;;2.13;1.93;;;;;;;;;;4949918;29;20218;-64
2022/03/06 10:10:45;;;;;;;0.50;0.50;;;;;;;;;;4946520;29;20531;-64
2022/03/06 10:13:22;;;;;;;1.57;1.47;;;;;;;;;;4945871;29;20721;-64
2022/03/06 10:16:06;;;;;;;2.10;1.40;;;;;;;;;;4945997;29;20199;-64
2022/03/06 10:18:34;;;;;;;0.90;0.87;;;;;;;;;;4949862;28;20215;-64
2022/03/06 10:21:02;;;;;;;1.33;1.10;;;;;;;;;;4945619;29;20235;-63
2022/03/06 10:23:30;;;;;;;1.53;1.13;;;;;;;;;;4945127;29;20207;-63
2022/03/06 10:26:01;;;;;;;1.00;0.97;;;;;;;;;;4950171;29;20235;-63
2022/03/06 10:28:28;;;;;;;1.60;1.17;;;;;;;;;;4949883;29;20285;-62
2022/03/06 10:30:55;;;;;;;2.40;1.87;;;;;;;;;;4948270;29;20307;-63
2022/03/06 10:33:24;;;;;;;1.67;1.57;;;;;;;;;;4944924;28;20219;-63
2022/03/06 10:35:53;;;;;;;2.57;2.10;;;;;;;;;;4939248;28;20299;-63
2022/03/06 10:38:22;;;;;;;2.90;1.93;;;;;;;;;;4940948;29;20219;-65
2022/03/06 10:40:50;;;;;;;5.53;2.27;;;;;;;;;;4944409;29;20223;-62
2022/03/06 10:43:18;;;;;;;2.30;2.10;;;;;;;;;;4928905;29;20207;-63
2022/03/06 10:45:46;;;;;;;1.77;1.37;;;;;;;;;;4945684;29;20728;-64
2022/03/06 10:48:13;;;;;;;1.30;1.07;;;;;;;;;;4945484;29;20290;-63
2022/03/06 10:50:40;;;;;;;1.17;1.10;;;;;;;;;;4944598;29;20214;-64
2022/03/06 10:53:22;;;;;;;1.43;1.43;;;;;;;;;;4944398;29;20225;-63
2022/03/06 10:55:51;;;;;;;1.83;1.67;;;;;;;;;;4940620;28;20222;-63
2022/03/06 10:58:19;;;;;;;2.37;1.03;;;;;;;;;;4926939;29;20690;-63
2022/03/06 11:00:46;;;;;;;0.87;0.87;;;;;;;;;;4936258;29;20215;-64
2022/03/06 11:03:13;;;;;;;1.90;1.73;;;;;;;;;;4938730;29;20661;-64
2022/03/06 11:05:43;;;;;;;1.83;1.73;;;;;;;;;;4936076;29;20234;-64
2022/03/06 11:08:12;;;;;;;1.47;1.37;;;;;;;;;;4944102;29;20310;-65
2022/03/06 11:10:40;;;;;;;2.97;2.20;;;;;;;;;;4940004;29;20215;-64
2022/03/06 11:13:09;;;;;;;1.50;1.40;;;;;;;;;;4939479;29;20355;-65
2022/03/06 11:15:36;;;;;;;6.93;2.10;;;;;;;;;;4926951;29;20208;-63
2022/03/06 11:18:04;;;;;;;1.73;1.63;;;;;;;;;;4927065;29;20218;-63
2022/03/06 11:20:31;;;;;;;1.57;1.17;;;;;;;;;;4936984;29;20216;-63
2022/03/06 11:23:01;;;;;;;2.47;2.10;;;;;;;;;;4927497;29;20227;-64
2022/03/06 11:25:29;;;;;;;2.20;2.10;;;;;;;;;;4943271;29;20660;-64
2022/03/06 11:28:04;;;;;;;2.50;2.10;;;;;;;;;;4944983;29;20295;-63
2022/03/06 11:30:33;;;;;;;2.73;2.47;;;;;;;;;;4945468;28;20214;-64
2022/03/06 11:33:01;;;;;;;4.37;2.70;;;;;;;;;;4948512;29;20417;-64
2022/03/06 11:35:33;;;;;;;1.67;1.23;;;;;;;;;;4929202;29;20701;-64
2022/03/06 11:38:00;;;;;;;2.83;2.43;;;;;;;;;;4929346;29;20528;-64
2022/03/06 11:40:38;;;;;;;5.63;2.13;;;;;;;;;;4931803;29;20211;-64
2022/03/06 11:43:06;;;;;;;10.10;4.27;;;;;;;;;;4933162;29;20216;-64
2022/03/06 11:45:50;;;;;;;3.17;2.87;;;;;;;;;;4933960;29;20266;-64
2022/03/06 11:48:24;;;;;;;5.23;3.23;;;;;;;;;;4934800;29;20215;-68
2022/03/06 11:51:06;;;;;;;2.73;2.57;;;;;;;;;;4947021;29;20318;-65
2022/03/06 11:53:49;;;;;;;18.83;6.17;;;;;;;;;;4947560;28;20207;-65
2022/03/06 11:56:45;;;;;;;4.93;2.60;;;;;;;;;;4945407;29;20211;-63
2022/03/06 11:59:25;;;;;;;2.03;1.93;;;;;;;;;;4908381;28;20211;-65
2022/03/06 12:01:54;;;;;;;2.67;2.47;;;;;;;;;;4928776;29;20218;-64
2022/03/06 12:04:22;;;;;;;4.30;2.20;;;;;;;;;;4943447;29;20215;-63
2022/03/06 12:06:50;;;;;;;4.87;3.00;;;;;;;;;;4947186;29;20242;-64
2022/03/06 12:09:19;;;;;;;1.87;1.63;;;;;;;;;;4946592;29;20214;-65
2022/03/06 12:11:46;;;;;;;0.77;0.77;;;;;;;;;;4934711;29;20677;-65
2022/03/06 12:14:14;;;;;;;1.57;1.47;;;;;;;;;;4929905;29;20701;-64
2022/03/06 12:16:56;;;;;;;2.97;2.47;;;;;;;;;;4928048;29;20960;-64
2022/03/06 12:19:24;;;;;;;3.03;2.07;;;;;;;;;;4942621;28;20219;-64
2022/03/06 12:21:51;;;;;;;1.77;1.60;;;;;;;;;;4945038;29;20558;-63
2022/03/06 12:24:29;;;;;;;2.07;1.27;;;;;;;;;;4942042;29;20211;-64
2022/03/06 12:26:59;;;;;;;1.30;1.20;;;;;;;;;;4947227;29;20238;-64
2022/03/06 12:29:47;;;;;;;1.77;1.40;;;;;;;;;;4947233;29;20223;-64
2022/03/06 12:32:35;;;;;;;2.00;0.90;;;;;;;;;;4946997;29;20230;-64
2022/03/06 12:35:05;;;;;;;4.93;1.53;;;;;;;;;;4928206;28;20274;-64
2022/03/06 12:37:32;;;;;;;4.60;1.87;;;;;;;;;;4928717;29;20216;-65
2022/03/06 12:40:00;;;;;;;1.90;1.63;;;;;;;;;;4947310;29;20242;-64
2022/03/06 12:42:28;;;;;;;5.13;2.27;;;;;;;;;;4944904;28;20214;-65
2022/03/06 12:44:56;;;;;;;3.43;2.73;;;;;;;;;;4944466;29;20601;-64
2022/03/06 12:47:24;;;;;;;2.03;1.93;;;;;;;;;;4928009;29;20237;-65
2022/03/06 12:49:52;;;;;;;2.40;2.27;;;;;;;;;;4940168;29;20215;-64
2022/03/06 12:52:20;;;;;;;1.80;0.97;;;;;;;;;;4946086;28;20211;-66
2022/03/06 12:54:48;;;;;;;2.67;2.47;;;;;;;;;;4946053;28;20222;-65
2022/03/06 12:57:15;;;;;;;2.67;2.47;;;;;;;;;;4944568;29;20908;-65
2022/03/06 12:59:43;;;;;;;3.60;2.73;;;;;;;;;;4937048;29;20244;-65
2022/03/06 13:02:10;;;;;;;1.90;1.77;;;;;;;;;;4941255;29;20206;-65
2022/03/06 13:04:37;;;;;;;2.17;2.07;;;;;;;;;;4945623;29;20989;-67
2022/03/06 13:07:07;;;;;;;1.90;1.80;;;;;;;;;;4945606;29;20317;-65
2022/03/06 13:09:36;;;;;;;3.07;2.77;;;;;;;;;;4939390;29;20674;-65
2022/03/06 13:12:04;;;;;;;2.57;1.80;;;;;;;;;;4939622;29;20496;-64
2022/03/06 13:14:33;;;;;;;2.50;2.30;;;;;;;;;;4945246;29;20242;-65
2022/03/06 13:17:01;;;;;;;0.40;0.40;;;;;;;;;;4940580;28;20596;-65
2022/03/06 13:19:36;;;;;;;7.73;4.10;;;;;;;;;;4945870;29;20246;-65
2022/03/06 13:22:06;;;;;;;2.90;2.63;;;;;;;;;;4945644;29;20570;-65
2022/03/06 13:24:40;;;;;;;1.10;1.07;;;;;;;;;;4941086;29;20208;-64
2022/03/06 13:27:07;;;;;;;1.37;1.30;;;;;;;;;;4927272;29;20254;-65
2022/03/06 13:29:34;;;;;;;1.70;1.60;;;;;;;;;;4926960;29;20219;-65
2022/03/06 13:32:01;;;;;;;4.00;2.07;;;;;;;;;;4926696;29;20223;-65
2022/03/06 13:34:28;;;;;;;2.00;1.87;;;;;;;;;;4926558;29;20218;-66
2022/03/06 13:36:56;;;;;;;2.03;1.93;;;;;;;;;;4927102;29;20211;-65
2022/03/06 13:39:23;;;;;;;1.57;1.47;;;;;;;;;;4944805;29;20571;-64
2022/03/06 13:41:52;;;;;;;1.93;1.73;;;;;;;;;;4945420;29;20252;-65
2022/03/06 13:44:20;;;;;;;2.40;1.80;;;;;;;;;;4933708;29;20211;-64
2022/03/06 13:46:47;;;;;;;1.00;0.93;;;;;;;;;;4929188;29;20721;-64
2022/03/06 13:49:15;;;;;;;1.13;1.13;;;;;;;;;;4938541;29;20215;-65
2022/03/06 13:51:43;;;;;;;2.67;1.27;;;;;;;;;;4927693;29;20212;-65
2022/03/06 13:54:10;;;;;;;2.13;1.93;;;;;;;;;;4938448;29;20207;-65
2022/03/06 13:56:43;;;;;;;2.93;2.57;;;;;;;;;;4946659;29;20215;-64
2022/03/06 13:59:12;;;;;;;1.90;1.67;;;;;;;;;;4935431;29;20590;-64
2022/03/06 14:01:40;;;;;;;1.60;1.20;;;;;;;;;;4927718;29;20329;-65
2022/03/06 14:04:11;;;;;;;2.17;1.90;;;;;;;;;;4927304;29;20219;-64
2022/03/06 14:06:42;;;;;;;0.67;0.67;;;;;;;;;;4937824;29;20572;-63
2022/03/06 14:09:23;;;;;;;1.30;1.20;;;;;;;;;;4938282;29;20589;-64
2022/03/06 14:11:50;;;;;;;2.10;1.07;;;;;;;;;;4936840;29;20214;-65
2022/03/06 14:14:19;;;;;;;2.10;1.90;;;;;;;;;;4943162;29;20269;-64
2022/03/06 14:16:46;;;;;;;1.70;1.43;;;;;;;;;;4942887;29;20211;-64
2022/03/06 14:19:17;;;;;;;1.60;1.50;;;;;;;;;;4926422;29;20212;-65
2022/03/06 14:21:45;;;;;;;3.20;2.60;;;;;;;;;;4927407;29;20583;-65
2022/03/06 14:24:13;;;;;;;2.73;1.90;;;;;;;;;;4930937;29;20209;-65
2022/03/06 14:26:41;;;;;;;1.90;1.80;;;;;;;;;;4944857;28;20257;-64
2022/03/06 14:29:12;;;;;;;2.43;2.23;;;;;;;;;;4944942;29;20256;-64
2022/03/06 14:31:41;;;;;;;2.03;1.80;;;;;;;;;;4943905;29;20648;-63
2022/03/06 14:34:08;;;;;;;1.43;1.33;;;;;;;;;;4943879;29;20215;-63
2022/03/06 14:36:35;;;;;;;2.20;1.30;;;;;;;;;;4943748;29;20203;-65
2022/03/06 14:39:02;;;;;;;1.83;1.47;;;;;;;;;;4945320;29;20669;-65
2022/03/06 14:41:29;;;;;;;5.10;2.30;;;;;;;;;;4944861;29;20312;-63
2022/03/06 14:43:56;;;;;;;1.20;1.20;;;;;;;;;;4945040;29;20218;-65
2022/03/06 14:46:24;;;;;;;1.60;1.33;;;;;;;;;;4942622;29;20207;-64
2022/03/06 14:48:53;;;;;;;2.90;2.53;;;;;;;;;;4944880;29;20219;-65